^^
Vremenska postaja Bezina
 
Daily Summary for November 12, 2019 Units:  Metric    English   Both
Daily Weekly Monthly Yearly Custom
  Current: High: Low: Average:
Temperature: 7.3 °C 7.4 °C 6.4 °C 7 °C
Dew Point: 6.8 °C 7.0 °C 5.7 °C 6.4 °C
Humidity: 97% 97% 95% 96%
Wind Speed: 0.0km/h 9.7km/h 0.0km/h 1km/h
Wind Gust: 4.8km/h 9.7km/h - -
WindCalm - - SSE
Pressure: 1002.7 hPa 1012.2 hPa 1002.5 hPa -
Precipitation: 17.5 mm      
Historical Graphs
 
 
Tabular Data for November 12, 2019
Time Temperature Dew Point Pressure Wind Wind Speed Wind Gust Humidity Rainfall Rate (Hourly)
00:15 6.7 °C 5.9 °C 1012.2 hPa Calm   3.2 km/h 95% 0.0 mm
00:30 6.6 °C 5.9 °C 1011.9 hPa Calm     95% 0.0 mm
00:45 6.6 °C 5.8 °C 1011.9 hPa Calm     95% 0.0 mm
01:00 6.6 °C 5.8 °C 1012.1 hPa Calm   4.8 km/h 95% 0.0 mm
01:15 6.6 °C 5.8 °C 1011.6 hPa Calm   3.2 km/h 95% 0.0 mm
01:30 6.6 °C 5.8 °C 1011.5 hPa Calm     95% 0.0 mm
01:45 6.6 °C 5.8 °C 1011.3 hPa Calm     95% 0.0 mm
02:00 6.6 °C 5.8 °C 1011.2 hPa Calm   1.6 km/h 95% 0.0 mm
02:15 6.6 °C 5.8 °C 1011.0 hPa Calm   3.2 km/h 95% 0.0 mm
02:30 6.6 °C 5.8 °C 1011.0 hPa Calm     95% 0.0 mm
02:45 6.6 °C 5.8 °C 1011.0 hPa Calm   1.6 km/h 95% 0.0 mm
03:00 6.5 °C 5.8 °C 1010.8 hPa Calm   3.2 km/h 95% 0.0 mm
03:15 6.6 °C 5.8 °C 1010.9 hPa ENE 1.6 km/h 3.2 km/h 95% 0.0 mm
03:30 6.5 °C 5.8 °C 1010.9 hPa Calm   1.6 km/h 95% 0.0 mm
03:45 6.4 °C 5.7 °C 1010.3 hPa Calm   3.2 km/h 95% 0.0 mm
04:00 6.4 °C 5.7 °C 1010.2 hPa NE 4.8 km/h 4.8 km/h 95% 0.0 mm
04:15 6.4 °C 5.7 °C 1010.2 hPa Calm     95% 0.0 mm
04:30 6.4 °C 5.7 °C 1010.5 hPa NE 3.2 km/h 3.2 km/h 95% 0.0 mm
04:45 6.4 °C 5.7 °C 1010.1 hPa Calm   1.6 km/h 95% 0.0 mm
05:00 6.5 °C 5.8 °C 1010.1 hPa Calm     95% 0.0 mm
05:15 6.5 °C 5.8 °C 1010.0 hPa Calm   1.6 km/h 95% 0.0 mm
05:30 6.5 °C 5.9 °C 1009.6 hPa Calm     96% 0.0 mm
05:45 6.6 °C 5.9 °C 1009.5 hPa Calm     96% 0.3 mm
06:00 6.6 °C 5.9 °C 1009.3 hPa Calm     96% 0.3 mm
06:15 6.6 °C 5.9 °C 1009.4 hPa SE 3.2 km/h 4.8 km/h 96% 0.3 mm
06:30 6.6 °C 6.0 °C 1009.4 hPa Calm   3.2 km/h 96% 0.5 mm
06:45 6.6 °C 5.9 °C 1009.3 hPa Calm   1.6 km/h 96% 0.5 mm
07:00 6.6 °C 5.9 °C 1009.3 hPa Calm     96% 0.5 mm
07:15 6.6 °C 6.0 °C 1009.1 hPa Calm     96% 0.5 mm
07:30 6.7 °C 6.1 °C 1008.9 hPa Calm     96% 0.5 mm
07:45 6.7 °C 6.1 °C 1008.9 hPa Calm     96% 0.3 mm
08:00 6.8 °C 6.2 °C 1008.9 hPa Calm     96% 0.0 mm
08:15 6.8 °C 6.2 °C 1009.0 hPa Calm     96% 0.0 mm
08:30 6.9 °C 6.3 °C 1009.0 hPa Calm     96% 0.0 mm
08:45 7.1 °C 6.4 °C 1008.7 hPa Calm     96% 0.0 mm
09:00 7.1 °C 6.5 °C 1008.7 hPa SSE 3.2 km/h 4.8 km/h 96% 0.0 mm
09:15 7.0 °C 6.4 °C 1008.7 hPa SSE 3.2 km/h 4.8 km/h 96% 0.0 mm
09:30 6.9 °C 6.3 °C 1008.6 hPa Calm   8.0 km/h 96% 0.0 mm
09:45 6.9 °C 6.3 °C 1008.3 hPa Calm   1.6 km/h 96% 0.0 mm
10:00 7.0 °C 6.4 °C 1008.2 hPa SSE 3.2 km/h 8.0 km/h 96% 0.0 mm
10:15 7.0 °C 6.4 °C 1007.8 hPa Calm   4.8 km/h 96% 0.0 mm
10:30 7.1 °C 6.4 °C 1007.5 hPa SSE 1.6 km/h 4.8 km/h 96% 0.0 mm
10:45 7.1 °C 6.4 °C 1007.5 hPa SSE 4.8 km/h 8.0 km/h 96% 0.3 mm
11:00 7.1 °C 6.5 °C 1007.3 hPa SSE 3.2 km/h 8.0 km/h 96% 0.3 mm
11:15 7.1 °C 6.4 °C 1006.8 hPa Calm   8.0 km/h 96% 0.3 mm
11:30 7.1 °C 6.4 °C 1007.0 hPa SSE 3.2 km/h 6.4 km/h 96% 0.5 mm
11:45 7.1 °C 6.4 °C 1007.0 hPa Calm   8.0 km/h 96% 1.0 mm
12:00 7.1 °C 6.4 °C 1007.1 hPa SSE 3.2 km/h 8.0 km/h 96% 2.3 mm
12:15 7.1 °C 6.5 °C 1006.8 hPa SSE 1.6 km/h 6.4 km/h 96% 2.8 mm
12:30 7.2 °C 6.6 °C 1006.1 hPa Calm   3.2 km/h 96% 3.0 mm
12:45 7.3 °C 6.7 °C 1005.3 hPa SSE 1.6 km/h 3.2 km/h 96% 2.5 mm
13:00 7.3 °C 6.9 °C 1005.0 hPa SSE 1.6 km/h 6.4 km/h 97% 1.5 mm
13:15 7.3 °C 6.9 °C 1004.9 hPa Calm   6.4 km/h 97% 1.5 mm
13:30 7.4 °C 6.9 °C 1005.2 hPa Calm   8.0 km/h 97% 1.5 mm
13:45 7.4 °C 7.0 °C 1005.1 hPa South 1.6 km/h 3.2 km/h 97% 1.8 mm
14:00 7.4 °C 7.0 °C 1005.0 hPa Calm   3.2 km/h 97% 2.3 mm
14:15 7.4 °C 7.0 °C 1004.4 hPa Calm   3.2 km/h 97% 2.8 mm
14:30 7.4 °C 7.0 °C 1004.2 hPa South 3.2 km/h 8.0 km/h 97% 3.6 mm
14:45 7.4 °C 7.0 °C 1003.6 hPa Calm   1.6 km/h 97% 4.3 mm
15:00 7.3 °C 6.9 °C 1003.4 hPa South 3.2 km/h 4.8 km/h 97% 4.1 mm
15:15 7.3 °C 6.7 °C 1003.0 hPa South 1.6 km/h 8.0 km/h 96% 3.6 mm
15:30 7.2 °C 6.8 °C 1003.3 hPa South 9.7 km/h 9.7 km/h 97% 2.3 mm
15:45 7.2 °C 6.7 °C 1003.6 hPa SSE 1.6 km/h 9.7 km/h 97% 1.0 mm
16:00 7.1 °C 6.7 °C 1003.4 hPa Calm   6.4 km/h 97% 1.5 mm
16:15 7.1 °C 6.7 °C 1003.3 hPa Calm   6.4 km/h 97% 2.0 mm
16:30 7.1 °C 6.7 °C 1003.1 hPa Calm   1.6 km/h 97% 3.0 mm
16:45 7.1 °C 6.7 °C 1003.2 hPa Calm   3.2 km/h 97% 3.6 mm
17:00 7.1 °C 6.7 °C 1002.8 hPa Calm   3.2 km/h 97% 3.3 mm
17:15 7.2 °C 6.7 °C 1003.0 hPa Calm   8.0 km/h 97% 2.8 mm
17:30 7.2 °C 6.7 °C 1003.0 hPa Calm   4.8 km/h 97% 2.0 mm
17:45 7.2 °C 6.7 °C 1002.9 hPa SSW 1.6 km/h 4.8 km/h 97% 1.5 mm
18:00 7.2 °C 6.8 °C 1002.8 hPa Calm   6.4 km/h 97% 0.8 mm
18:15 7.3 °C 6.8 °C 1002.9 hPa Calm     97% 0.3 mm
18:30 7.3 °C 6.9 °C 1003.1 hPa Calm   1.6 km/h 97% 0.5 mm
18:45 7.4 °C 7.0 °C 1003.3 hPa South 1.6 km/h 4.8 km/h 97% 0.5 mm
19:00 7.4 °C 7.0 °C 1003.3 hPa South 3.2 km/h 8.0 km/h 97% 0.5 mm
19:15 7.4 °C 7.0 °C 1003.5 hPa Calm   8.0 km/h 97% 0.5 mm
19:30 7.4 °C 6.9 °C 1003.4 hPa South 6.4 km/h 8.0 km/h 97% 0.3 mm
19:45 7.3 °C 6.9 °C 1003.4 hPa Calm   9.7 km/h 97% 0.0 mm
20:00 7.3 °C 6.8 °C 1003.2 hPa SSE 6.4 km/h 8.0 km/h 97% 0.3 mm
20:15 7.2 °C 6.8 °C 1003.2 hPa SSE 1.6 km/h 8.0 km/h 97% 0.3 mm
20:30 7.2 °C 6.8 °C 1002.8 hPa Calm   6.4 km/h 97% 0.3 mm
20:45 7.2 °C 6.8 °C 1002.6 hPa SSE 1.6 km/h 3.2 km/h 97% 0.3 mm
21:00 7.3 °C 6.8 °C 1002.7 hPa Calm   8.0 km/h 97% 0.0 mm
21:15 7.2 °C 6.8 °C 1002.9 hPa South 1.6 km/h 4.8 km/h 97% 0.0 mm
21:30 7.3 °C 6.8 °C 1002.5 hPa Calm   3.2 km/h 97% 0.0 mm
21:45 7.3 °C 6.8 °C 1002.5 hPa Calm   3.2 km/h 97% 0.0 mm
22:00 7.3 °C 6.8 °C 1002.7 hPa Calm   4.8 km/h 97% 0.0 mm
Juneau County Weather
Compliments of Weather Underground - 2.25 mb